Genco Loire — V7GN8 — position and weather

sailwx.info

Track history (hours):
 
Tides and Currents Weather Stations Pressure Air Temp Water Temp Dewpoint Dewpoint Depression Visibility Wind Speed Wind Dir Waves Ship Positions

Genco Loire

Last reported at 2017-Feb-12 19:15 UTC. Time now 2017-Feb-22 20:00 UTC.
Position N 36°28' E 014°42'.
Warning: this ship's position is 10 days out of date.

Length 190 m; draft 11.4 m.

MMSI: 538002760.

Date/timePositionNaut miles runAvg speedWind from/ knotsBaromVisibWave heightAir tempDewpointWater temp
2017-Feb-12 19:15N 36°28' E 014°42'811.2
2017-Feb-12 18:33N 36°29' E 014°32'1111.3
2017-Feb-12 17:33N 36°33' E 014°19'  
2017-Feb-09 01:28N 36°02' W 004°49'1213.0
2017-Feb-09 00:31N 36°00' W 005°04'1212.7
2017-Feb-08 23:33N 35°59' W 005°19'1212.3
2017-Feb-08 22:33N 35°56' W 005°34'253 9.4
2017-Feb-07 19:29N 38°16' W 009°59'1011.3
2017-Feb-07 18:33N 38°26' W 010°01'1111.4
2017-Feb-07 17:33N 38°37' W 010°05'1111.4
2017-Feb-07 16:33N 38°48' W 010°06'1211.6
2017-Feb-07 15:33N 39°00' W 010°06'1211.8
2017-Feb-07 14:33N 39°12' W 010°06'  
2017-Feb-04 06:32N 49°45' W 003°36'1111.2
2017-Feb-04 05:33N 49°50' W 003°22'1111.4
2017-Feb-04 04:33N 49°56' W 003°06'1110.5
2017-Feb-04 03:33N 49°60' W 002°51'100 9.0
2017-Feb-03 16:30N 50°26' W 000°21'1111.4
2017-Feb-03 15:33N 50°29' W 000°05'1010.4
2017-Feb-03 14:33N 50°32' E 000°11'10 9.6
2017-Feb-03 13:33N 50°34' E 000°26'9 9.5
2017-Feb-03 12:33N 50°39' E 000°39'1010.5
2017-Feb-03 11:33N 50°45' E 000°53'1611.8
2017-Feb-03 10:13N 50°55' E 001°11'812.5
2017-Feb-03 09:33N 51°01' E 001°21'1211.8
2017-Feb-03 08:33N 51°08' E 001°36'1010.5
2017-Feb-03 07:33N 51°16' E 001°47'10 9.9
2017-Feb-03 06:33N 51°24' E 001°56'9 9.4
2017-Feb-03 05:33N 51°32' E 002°03'10 9.6
2017-Feb-03 04:33N 51°39' E 002°15'4711.8
2017-Feb-03 00:32N 52°15' E 003°04'1312.8
2017-Feb-02 23:32N 52°24' E 003°18'1712.1
2017-Feb-02 22:08N 52°30' E 003°45'711.6
2017-Feb-02 21:33N 52°31' E 003°56'1211.6
2017-Feb-02 20:33N 52°31' E 004°15'1110.7
2017-Feb-02 19:33N 52°28' E 004°32'  
Track history (hours):
 
Tides and Currents Weather Stations Pressure Air Temp Water Temp Dewpoint Dewpoint Depression Visibility Wind Speed Wind Dir Waves Ship Positions

Genco Loire

Last reported at 2017-Feb-12 19:15 UTC. Time now 2017-Feb-22 20:00 UTC.
Position N 36°28' E 014°42'.
Warning: this ship's position is 10 days out of date.

Length 190 m; draft 11.4 m.

MMSI: 538002760.

Date/timePositionNaut miles runAvg speedWind from/ knotsBaromVisibWave heightAir tempDewpointWater temp
2017-Feb-12 19:15N 36°28' E 014°42'811.2
2017-Feb-12 18:33N 36°29' E 014°32'1111.3
2017-Feb-12 17:33N 36°33' E 014°19'  
2017-Feb-09 01:28N 36°02' W 004°49'1213.0
2017-Feb-09 00:31N 36°00' W 005°04'1212.7
2017-Feb-08 23:33N 35°59' W 005°19'1212.3
2017-Feb-08 22:33N 35°56' W 005°34'253 9.4
2017-Feb-07 19:29N 38°16' W 009°59'1011.3
2017-Feb-07 18:33N 38°26' W 010°01'1111.4
2017-Feb-07 17:33N 38°37' W 010°05'1111.4
2017-Feb-07 16:33N 38°48' W 010°06'1211.6
2017-Feb-07 15:33N 39°00' W 010°06'1211.8
2017-Feb-07 14:33N 39°12' W 010°06'  
2017-Feb-04 06:32N 49°45' W 003°36'1111.2
2017-Feb-04 05:33N 49°50' W 003°22'1111.4
2017-Feb-04 04:33N 49°56' W 003°06'1110.5
2017-Feb-04 03:33N 49°60' W 002°51'100 9.0
2017-Feb-03 16:30N 50°26' W 000°21'1111.4
2017-Feb-03 15:33N 50°29' W 000°05'1010.4
2017-Feb-03 14:33N 50°32' E 000°11'10 9.6
2017-Feb-03 13:33N 50°34' E 000°26'9 9.5
2017-Feb-03 12:33N 50°39' E 000°39'1010.5
2017-Feb-03 11:33N 50°45' E 000°53'1611.8
2017-Feb-03 10:13N 50°55' E 001°11'812.5
2017-Feb-03 09:33N 51°01' E 001°21'1211.8
2017-Feb-03 08:33N 51°08' E 001°36'1010.5
2017-Feb-03 07:33N 51°16' E 001°47'10 9.9
2017-Feb-03 06:33N 51°24' E 001°56'9 9.4
2017-Feb-03 05:33N 51°32' E 002°03'10 9.6
2017-Feb-03 04:33N 51°39' E 002°15'4711.8
2017-Feb-03 00:32N 52°15' E 003°04'1312.8
2017-Feb-02 23:32N 52°24' E 003°18'1712.1
2017-Feb-02 22:08N 52°30' E 003°45'711.6
2017-Feb-02 21:33N 52°31' E 003°56'1211.6
2017-Feb-02 20:33N 52°31' E 004°15'1110.7
2017-Feb-02 19:33N 52°28' E 004°32'  

Dump ship's entire track history